Runway excursion Serious incident Bombardier CRJ-900 9XR-WI, Wednesday 20 April 2022
ASN logo
 
This information is added by users of ASN. Neither ASN nor the Flight Safety Foundation are responsible for the completeness or correctness of this information. If you feel this information is incomplete or incorrect, you can submit corrected information.

Date:Wednesday 20 April 2022
Time:05:31 LT
Type:Silhouette image of generic CRJ9 model; specific model in this crash may look slightly different    
Bombardier CRJ-900
Owner/operator:RwandAir
Registration: 9XR-WI
MSN: 15287
Fatalities:Fatalities: 0 / Occupants:
Other fatalities:0
Aircraft damage: Unknown
Category:Serious incident
Location:Entebbe Airport (EBB/HUEN) -   Uganda
Phase: Landing
Nature:Passenger - Scheduled
Departure airport:Nairobi-Jomo Kenyatta International Airport (NBO/HKJK)
Destination airport:Entebbe Airport (EBB/HUEN)
Confidence Rating: Information is only available from news, social media or unofficial sources
Narrative:
RwandAir flight WB464, a Bombardier CRJ-900, suffered a runway excursion at Entebbe Airport, Uganda.

Weather report from Entebbe about the incident time (05:31 LT = 0231Z):
HUEN 200300Z 01012KT 9000 TSRA BKN019 FEW022CB OVC090 19/18 Q1016 NOSIG
HUEN 200230Z 12021KT 8000 TSRA BKN019 FEW022CB OVC090 19/19 Q1016 NOSIG
HUEN 200200Z 12021KT 8000 TSRA BKN019 FEW022CB OVC090 19/19 Q1016 NOSIG

Sources:

https://twitter.com/NewTimesRwanda/status/1516671955746930699
https://twitter.com/Imvaho_Nshya/status/1516673513972772866
https://www.monitor.co.ug/uganda/news/national/rwanda-plane-skids-off-runway-at-entebbe-airport-3788184
CAA Uganda

History of this aircraft

Other occurrences involving this aircraft

18 December 2023 9XR-WI Rwandair Express 0 Harare min
Tire failure

Media:

Revision history:

Date/timeContributorUpdates
20-Apr-2022 07:00 harro Added
20-Apr-2022 07:03 harro Updated [Registration, Cn, Location, Source, Embed code]
20-Apr-2022 07:46 harro Updated [Time, Narrative]
20-Apr-2022 07:49 harro Updated [Source]

Corrections or additions? ... Edit this accident description

The Aviation Safety Network is an exclusive service provided by:
Quick Links:

CONNECT WITH US: FSF on social media FSF Facebook FSF Twitter FSF Youtube FSF LinkedIn FSF Instagram

©2024 Flight Safety Foundation

1920 Ballenger Av, 4th Fl.
Alexandria, Virginia 22314
www.FlightSafety.org